Time;durP1;ratioP1;P1;durP2;ratioP2;P2;SDS_P1;SDS_P2;PMS_P1;PMS_P2;Temp;Humidity;BMP_temperature;BMP_pressure;BME280_temperature;BME280_humidity;BME280_pressure;Samples;Min_cycle;Max_cycle;Signal;HPM_P1;HPM_P2
2022/12/01 00:20:23;;;;;;;11.27;7.10;;;;;;;4.45;100.00;98069.12;18302354;32;20062;-63
2022/12/01 00:30:26;;;;;;;10.77;6.77;;;;;;;4.44;100.00;98066.66;18301594;32;20102;-63
2022/12/01 00:40:28;;;;;;;10.90;6.13;;;;;;;4.45;100.00;98073.66;18300466;32;20370;-63
2022/12/01 00:50:31;;;;;;;10.97;6.67;;;;;;;4.43;100.00;98062.34;18300651;32;20058;-63
2022/12/01 01:00:37;;;;;;;11.90;6.97;;;;;;;4.39;100.00;98060.13;18299626;32;20051;-63
2022/12/01 01:10:43;;;;;;;11.83;6.67;;;;;;;4.38;100.00;98057.66;18299892;32;20502;-63
2022/12/01 01:20:53;;;;;;;;;;;;;;;4.34;100.00;98062.63;18299412;32;20058;-63
2022/12/01 01:30:56;;;;;;;10.63;6.60;;;;;;;4.29;100.00;98056.28;18299205;32;19949;-63
2022/12/01 01:40:58;;;;;;;11.40;6.90;;;;;;;4.25;100.00;98072.00;18297880;32;20062;-63
2022/12/01 01:51:02;;;;;;;10.57;6.17;;;;;;;4.23;100.00;98071.38;18297066;32;20066;-63
2022/12/01 02:01:05;;;;;;;11.63;5.83;;;;;;;4.21;100.00;98066.25;18283035;32;20050;-63
2022/12/01 02:11:50;;;;;;;9.83;6.67;;;;;;;4.25;100.00;98063.97;18296770;32;20058;-63
2022/12/01 02:22:17;;;;;;;12.33;7.37;;;;;;;4.23;100.00;98055.31;18296364;32;20066;-63
2022/12/01 02:32:28;;;;;;;13.23;8.13;;;;;;;4.17;100.00;98056.22;18295426;32;20066;-63
2022/12/01 02:42:52;;;;;;;12.23;7.77;;;;;;;4.17;100.00;98051.66;18295196;32;20057;-63
2022/12/01 02:52:55;;;;;;;15.70;8.83;;;;;;;4.15;100.00;98047.56;18294996;32;20081;-63
2022/12/01 03:03:36;;;;;;;15.43;9.37;;;;;;;4.13;100.00;98055.00;18307537;32;20050;-64
2022/12/01 03:14:17;;;;;;;17.07;8.77;;;;;;;4.14;100.00;98045.91;18315167;32;20070;-63
2022/12/01 03:24:24;;;;;;;17.67;9.20;;;;;;;4.14;100.00;98051.28;18301331;32;20050;-63
2022/12/01 03:34:46;;;;;;;15.13;9.13;;;;;;;4.12;100.00;98056.84;18300757;32;20433;-63
2022/12/01 03:44:55;;;;;;;12.83;8.73;;;;;;;4.09;100.00;98048.47;18314567;32;20106;-63
2022/12/01 03:55:16;;;;;;;15.73;9.13;;;;;;;4.05;100.00;98038.16;18299599;32;20127;-63
2022/12/01 04:05:19;;;;;;;16.27;10.00;;;;;;;4.04;100.00;98044.59;18313311;32;20110;-63
2022/12/01 04:15:27;;;;;;;14.27;9.20;;;;;;;4.00;100.00;98050.56;18291547;32;20062;-63
2022/12/01 04:25:29;;;;;;;16.23;9.33;;;;;;;3.99;100.00;98055.13;18301765;32;20081;-63
2022/12/01 04:35:32;;;;;;;13.57;8.67;;;;;;;4.01;100.00;98058.37;18275183;32;20054;-63
2022/12/01 04:45:34;;;;;;;13.57;8.47;;;;;;;3.99;100.00;98065.81;18301027;32;20079;-63
2022/12/01 04:55:38;;;;;;;15.30;8.80;;;;;;;3.98;100.00;98063.38;18300062;32;20046;-63
2022/12/01 05:05:40;;;;;;;16.97;9.13;;;;;;;4.01;100.00;98063.72;18299836;32;20113;-63
2022/12/01 05:15:43;;;;;;;16.23;9.30;;;;;;;4.00;100.00;98071.97;18299367;32;20084;-63
2022/12/01 05:25:45;;;;;;;17.10;9.77;;;;;;;4.02;100.00;98070.72;18298087;32;20073;-63
2022/12/01 05:35:48;;;;;;;17.70;10.10;;;;;;;4.00;100.00;98080.00;18298620;32;20429;-63
2022/12/01 05:45:51;;;;;;;16.23;9.80;;;;;;;3.94;100.00;98084.38;18284164;32;20105;-63
2022/12/01 05:55:54;;;;;;;16.87;10.73;;;;;;;3.93;100.00;98085.41;18297085;32;20085;-63
2022/12/01 06:05:56;;;;;;;18.10;9.40;;;;;;;3.94;100.00;98094.25;18296891;32;20054;-63
2022/12/01 06:16:01;;;;;;;17.97;10.10;;;;;;;3.90;100.00;98099.22;18296440;32;20377;-63
2022/12/01 06:26:04;;;;;;;23.03;12.67;;;;;;;3.94;100.00;98100.41;18295999;32;20054;-63
2022/12/01 06:36:07;;;;;;;23.47;12.10;;;;;;;3.94;100.00;98092.41;18295197;32;20339;-63
2022/12/01 06:46:10;;;;;;;24.00;11.73;;;;;;;3.89;100.00;98095.72;18294924;32;20460;-63
2022/12/01 06:56:12;;;;;;;23.30;11.50;;;;;;;3.87;100.00;98107.69;18280722;32;20099;-63
2022/12/01 07:06:16;;;;;;;22.30;11.60;;;;;;;3.81;100.00;98121.91;18294126;32;20065;-63
2022/12/01 07:16:19;;;;;;;17.53;9.30;;;;;;;3.77;100.00;98120.69;18293928;32;20383;-63
2022/12/01 07:26:22;;;;;;;19.07;9.37;;;;;;;3.64;100.00;98124.28;18279838;32;20068;-63
2022/12/01 07:36:25;;;;;;;17.33;8.30;;;;;;;3.48;100.00;98133.59;18293182;32;20446;-63
2022/12/01 07:46:28;;;;;;;15.87;9.13;;;;;;;3.44;100.00;98140.41;18295737;32;20493;-63
2022/12/01 07:56:31;;;;;;;17.43;9.03;;;;;;;3.24;100.00;98157.34;18303134;32;20124;-63
2022/12/01 08:06:35;;;;;;;19.63;9.43;;;;;;;3.21;100.00;98166.59;18288565;32;20054;-63
2022/12/01 08:16:39;;;;;;;14.43;8.98;;;;;;;3.20;100.00;98167.62;18302563;32;20096;-63
2022/12/01 08:26:42;;;;;;;17.83;8.57;;;;;;;3.17;100.00;98177.94;18301794;32;20058;-63
2022/12/01 08:36:44;;;;;;;18.33;9.63;;;;;;;3.17;100.00;98173.38;18301407;32;20051;-63
2022/12/01 08:46:47;;;;;;;18.77;8.70;;;;;;;3.08;100.00;98179.16;18286646;32;20050;-63
2022/12/01 08:56:50;;;;;;;16.10;9.33;;;;;;;3.09;100.00;98183.50;18299504;32;20106;-63
2022/12/01 09:06:55;;;;;;;20.80;10.07;;;;;;;3.06;100.00;98174.03;18299836;32;20072;-63
2022/12/01 09:16:59;;;;;;;18.47;10.20;;;;;;;3.02;100.00;98180.84;18285530;32;20062;-63
2022/12/01 09:27:04;;;;;;;18.02;9.95;;;;;;;3.10;100.00;98191.31;18298454;32;20446;-63
2022/12/01 09:37:08;;;;;;;17.23;10.27;;;;;;;3.15;100.00;98187.97;18298562;32;20077;-63
2022/12/01 09:47:11;;;;;;;18.13;10.33;;;;;;;3.21;100.00;98184.50;18283870;32;20057;-63
2022/12/01 09:57:31;;;;;;;18.90;9.87;;;;;;;3.36;100.00;98190.41;18283043;32;20061;-63
2022/12/01 10:07:43;;;;;;;19.87;11.67;;;;;;;3.52;100.00;98189.13;18296903;32;20070;-63
2022/12/01 10:18:14;;;;;;;21.00;12.23;;;;;;;3.51;100.00;98186.66;18282614;32;20054;-63
2022/12/01 10:29:01;;;;;;;19.53;11.90;;;;;;;3.55;100.00;98177.19;18296264;32;20054;-63
2022/12/01 10:39:06;;;;;;;21.37;11.73;;;;;;;3.51;100.00;98166.09;18295236;32;20373;-64
2022/12/01 10:49:15;;;;;;;24.13;12.90;;;;;;;3.61;100.00;98170.97;18295191;32;20409;-63
2022/12/01 10:59:32;;;;;;;19.57;11.27;;;;;;;3.66;100.00;98157.78;18280558;32;20201;-63
2022/12/01 11:09:36;;;;;;;20.47;11.17;;;;;;;3.83;100.00;98142.06;18294062;32;20049;-63
2022/12/01 11:19:39;;;;;;;21.90;11.43;;;;;;;3.87;100.00;98151.28;18296069;32;20091;-63
2022/12/01 11:29:42;;;;;;;21.70;11.97;;;;;;;4.04;100.00;98146.28;18290521;32;20058;-63
2022/12/01 11:39:47;;;;;;;21.37;11.73;;;;;;;4.23;100.00;98140.97;18304373;32;20081;-63
2022/12/01 11:50:03;;;;;;;23.52;12.98;;;;;;;4.15;99.15;98141.25;18302798;32;20433;-63
2022/12/01 12:00:27;;;;;;;23.33;12.57;;;;;;;4.04;99.55;98138.25;18302782;32;20378;-63
2022/12/01 12:10:47;;;;;;;23.20;12.63;;;;;;;4.09;100.00;98134.91;18302616;32;20445;-63
2022/12/01 12:21:22;;;;;;;23.10;12.67;;;;;;;4.14;99.70;98126.22;18288153;32;20063;-63
2022/12/01 12:32:01;;;;;;;21.27;12.37;;;;;;;4.16;100.00;98129.50;18287331;32;20431;-64
2022/12/01 12:42:20;;;;;;;23.57;12.53;;;;;;;4.18;96.89;98119.37;18301291;32;20387;-63
2022/12/01 12:52:49;;;;;;;23.10;13.33;;;;;;;4.18;98.92;98122.06;18300842;32;20061;-63
2022/12/01 13:02:52;;;;;;;21.93;12.93;;;;;;;4.17;96.33;98110.56;18236037;32;20119;-63
2022/12/01 13:13:24;;;;;;;20.93;12.23;;;;;;;4.21;97.49;98100.25;18235583;32;20069;-63
2022/12/01 13:23:28;;;;;;;23.00;12.03;;;;;;;4.26;99.32;98102.25;18240973;32;20059;-63
2022/12/01 13:33:32;;;;;;;22.43;12.10;;;;;;;4.22;96.77;98093.81;18235712;32;20076;-63
2022/12/01 13:43:36;;;;;;;21.43;12.37;;;;;;;4.06;98.59;98096.00;18233298;32;20074;-63
2022/12/01 13:53:57;;;;;;;22.37;12.63;;;;;;;4.09;100.00;98094.75;18235330;32;20483;-63
2022/12/01 14:04:24;;;;;;;19.57;11.50;;;;;;;3.93;99.67;98088.06;18293051;32;20073;-63
2022/12/01 14:14:35;;;;;;;24.77;12.30;;;;;;;3.82;100.00;98086.09;18296749;32;20046;-63
2022/12/01 14:24:51;;;;;;;22.80;12.33;;;;;;;3.77;100.00;98096.63;18296143;32;20096;-63
2022/12/01 14:34:58;;;;;;;23.83;13.90;;;;;;;3.70;99.21;98091.31;18295934;32;20066;-63
2022/12/01 14:45:02;;;;;;;22.00;12.83;;;;;;;3.59;100.00;98092.84;18295608;32;20080;-64
2022/12/01 14:55:17;;;;;;;22.17;13.13;;;;;;;3.47;100.00;98099.91;18280874;32;20049;-63
2022/12/01 15:05:26;;;;;;;22.13;12.57;;;;;;;3.41;100.00;98098.06;18294367;32;20092;-63
2022/12/01 15:15:28;;;;;;;22.27;12.10;;;;;;;3.37;100.00;98105.69;18294215;32;20084;-63
2022/12/01 15:25:34;;;;;;;26.33;13.47;;;;;;;3.29;100.00;98114.78;18279603;32;20062;-63
2022/12/01 15:35:37;;;;;;;39.90;17.10;;;;;;;3.23;100.00;98110.25;18280398;32;20457;-63
2022/12/01 15:45:50;;;;;;;25.17;13.03;;;;;;;3.23;100.00;98104.91;18278791;32;20090;-63
2022/12/01 15:55:56;;;;;;;19.27;11.87;;;;;;;3.07;100.00;98122.25;18292704;32;20063;-63
2022/12/01 16:06:01;;;;;;;20.37;11.50;;;;;;;3.02;100.00;98114.84;18293603;32;20103;-63
2022/12/01 16:16:28;;;;;;;20.23;12.07;;;;;;;3.03;100.00;98108.47;18276546;32;20051;-63
2022/12/01 16:26:33;;;;;;;20.23;11.30;;;;;;;2.99;100.00;98107.25;18288108;32;20058;-63
2022/12/01 16:36:35;;;;;;;20.43;11.87;;;;;;;2.94;100.00;98103.59;18301851;32;20080;-63
2022/12/01 16:46:39;;;;;;;19.43;10.80;;;;;;;2.87;100.00;98106.28;18300882;32;20062;-63
2022/12/01 16:56:45;;;;;;;19.77;11.20;;;;;;;2.89;100.00;98106.88;18300396;32;20060;-63
2022/12/01 17:06:48;;;;;;;23.17;12.97;;;;;;;2.85;100.00;98102.97;18299826;32;20106;-63
2022/12/01 17:16:51;;;;;;;21.53;11.13;;;;;;;2.84;100.00;98106.69;18285573;32;20373;-63
2022/12/01 17:26:54;;;;;;;20.03;11.20;;;;;;;2.83;100.00;98110.37;18299084;32;20092;-63
2022/12/01 17:36:57;;;;;;;21.30;11.53;;;;;;;2.78;100.00;98107.53;18298455;32;20062;-63
2022/12/01 17:46:59;;;;;;;20.20;12.40;;;;;;;2.75;100.00;98107.94;18298413;32;20077;-64
2022/12/01 17:57:02;;;;;;;23.63;13.13;;;;;;;2.76;100.00;98112.25;18283570;32;20113;-64
2022/12/01 18:07:06;;;;;;;20.67;12.37;;;;;;;2.78;100.00;98112.88;18296764;32;20151;-64
2022/12/01 18:17:09;;;;;;;20.20;12.47;;;;;;;2.73;100.00;98118.84;18296603;32;20085;-64
2022/12/01 18:27:12;;;;;;;21.27;12.63;;;;;;;2.67;100.00;98117.81;18282329;32;20109;-63
2022/12/01 18:37:15;;;;;;;21.03;11.77;;;;;;;2.68;100.00;98124.78;18295218;32;20058;-63
2022/12/01 18:47:17;;;;;;;25.07;14.80;;;;;;;2.68;100.00;98118.63;18295090;32;20100;-64
2022/12/01 18:57:20;;;;;;;22.93;13.27;;;;;;;2.71;100.00;98113.72;18294697;32;20062;-63
2022/12/01 19:07:22;;;;;;;22.47;13.33;;;;;;;2.66;100.00;98118.84;18294821;32;20057;-64
2022/12/01 19:17:31;;;;;;;20.77;12.20;;;;;;;2.74;100.00;98111.63;18294054;32;20062;-63
2022/12/01 19:27:34;;;;;;;22.50;12.40;;;;;;;2.64;100.00;98107.53;18293665;32;20472;-64
2022/12/01 19:37:37;;;;;;;23.03;12.67;;;;;;;2.69;100.00;98107.75;18279947;32;20051;-63
2022/12/01 19:47:39;;;;;;;23.37;12.67;;;;;;;2.71;100.00;98121.72;18301631;32;20062;-63
2022/12/01 19:57:42;;;;;;;24.70;13.17;;;;;;;2.71;100.00;98113.72;18303318;32;20116;-63
2022/12/01 20:07:44;;;;;;;22.37;13.53;;;;;;;2.74;100.00;98114.31;18302929;32;20058;-63
2022/12/01 20:17:49;;;;;;;22.47;14.13;;;;;;;2.72;100.00;98119.84;18303632;32;20072;-63
2022/12/01 20:27:51;;;;;;;22.17;12.97;;;;;;;2.71;100.00;98128.88;18301936;32;20080;-63
2022/12/01 20:37:55;;;;;;;25.37;14.00;;;;;;;2.67;100.00;98123.16;18287943;32;20501;-63
2022/12/01 20:47:57;;;;;;;27.53;14.90;;;;;;;2.69;100.00;98122.94;18287173;32;20058;-63
2022/12/01 20:58:01;;;;;;;27.60;14.37;;;;;;;2.67;100.00;98122.31;18300065;32;20450;-63
2022/12/01 21:08:06;;;;;;;22.17;13.63;;;;;;;2.68;100.00;98127.44;18300135;32;20113;-63
2022/12/01 21:18:21;;;;;;;24.20;14.68;;;;;;;2.69;100.00;98126.44;18299710;32;20053;-63
2022/12/01 21:28:25;;;;;;;21.33;12.83;;;;;;;2.77;100.00;98119.22;18299134;32;20497;-63
2022/12/01 21:38:30;;;;;;;24.97;14.53;;;;;;;2.79;100.00;98104.63;18284772;32;20058;-63
2022/12/01 21:48:35;;;;;;;22.23;12.57;;;;;;;2.71;100.00;98103.03;18297914;32;20062;-63
2022/12/01 21:58:38;;;;;;;;;;;;;;;2.74;100.00;98100.94;18284556;32;20093;-63
2022/12/01 22:08:45;;;;;;;24.40;13.60;;;;;;;2.78;100.00;98096.84;18296595;32;20285;-63
2022/12/01 22:18:54;;;;;;;24.47;14.20;;;;;;;2.83;100.00;98095.19;18297620;32;20049;-63
2022/12/01 22:28:58;;;;;;;25.10;14.33;;;;;;;2.82;100.00;98090.03;18269851;32;20080;-63
2022/12/01 22:39:25;;;;;;;29.33;15.88;;;;;;;2.83;100.00;98091.69;18295403;32;20080;-64
2022/12/01 22:49:29;;;;;;;26.70;14.93;;;;;;;2.77;100.00;98090.69;18295259;32;20109;-63
2022/12/01 22:59:36;;;;;;;25.53;14.97;;;;;;;2.79;100.00;98093.94;18294511;32;20050;-63
2022/12/01 23:09:42;;;;;;;26.57;14.33;;;;;;;2.80;100.00;98089.44;18294373;32;20118;-63
2022/12/01 23:19:44;;;;;;;;;;;;;;;2.71;100.00;98084.34;18301095;32;20339;-63
2022/12/01 23:29:46;;;;;;;24.97;15.53;;;;;;;2.75;100.00;98083.91;18304969;32;19945;-63
2022/12/01 23:39:50;;;;;;;27.57;15.30;;;;;;;2.70;100.00;98079.22;18304297;32;20434;-63
2022/12/01 23:50:00;;;;;;;27.70;14.37;;;;;;;2.69;100.00;98069.56;18303920;32;20446;-63
